Valentine, Texas
Current Conditions -  °F | °C
As of 8:35 PM on Saturday 22 Nov 2014 (Local Time) from KMRF Reporting Station
Clear Clear  
Wind Chill:   Ceiling: Unl
Heat Index:   Visibility: 10mi
Dew Point:   Wind: 9mph
Humidity: 57%   Direction: 270°W
Pressure: 29.97"   Gusts: NA
Location:  30.59°N, 104.5°W
Report Text: KMRF 230235Z AUTO 27008KT 10SM CLR 09/01 A2997 RMK AO1
Loading
Personal Weather Stations






























Interactive Weather Map New forecast layout! Learn more

10-Day Weather Forecast

Advertisements
Track Severe Weather on mobile